EZS24YK LFSB-LICA
Flight info
| Callsign | EZS24YK |
|---|---|
| Flight time | N/A |
| Altitude | 37000 |
| Route | DCT ELBEG Y715 AMRUP N491 TRA DCT RIPUS DCT GERSA Z50 RESIA DCT PELEG DCT DIPVO DCT EVULI DCT TEA DCT EVINO/N0360F190 M620 ARBUM ARBUM2R |
| Aircraft | A320/M-SDE3FGHIRWY/LB1 |
Departure
| Time | 2026-05-01 14:40 |
|---|---|
| Airport | EuroAirport Basel–Mulhouse–Freiburg (LFSB) |
Arrival
| Time | N/A |
|---|---|
| Airport | Lamezia Terme Sant'Eufemia International Airport (LICA) |
| Time | Latitude | Longitude | Altitude | Speed | Heading |
|---|---|---|---|---|---|
| 2026-05-01 14:01 | 47.59862 | 7.53116 | 882 ft | 0 kts | 32° |
| 2026-05-01 14:31 | 47.59843 | 7.53101 | 891 ft | 4 kts | 20° |
| 2026-05-01 14:31 | 47.59817 | 7.53091 | 891 ft | 4 kts | 3° |
| 2026-05-01 14:31 | 47.59791 | 7.53092 | 891 ft | 4 kts | 348° |
| 2026-05-01 14:31 | 47.59765 | 7.53104 | 891 ft | 4 kts | 332° |
| 2026-05-01 14:32 | 47.59760 | 7.53109 | 891 ft | 0 kts | 330° |
| 2026-05-01 14:34 | 47.59763 | 7.53105 | 891 ft | 3 kts | 327° |
| 2026-05-01 14:34 | 47.59773 | 7.53056 | 892 ft | 7 kts | 255° |
| 2026-05-01 14:34 | 47.59731 | 7.53027 | 893 ft | 6 kts | 186° |
| 2026-05-01 14:35 | 47.59694 | 7.53022 | 892 ft | 5 kts | 186° |
| 2026-05-01 14:35 | 47.59671 | 7.53002 | 891 ft | 4 kts | 223° |
| 2026-05-01 14:35 | 47.59650 | 7.52948 | 891 ft | 9 kts | 245° |
| 2026-05-01 14:35 | 47.59617 | 7.52843 | 891 ft | 11 kts | 239° |
| 2026-05-01 14:36 | 47.59559 | 7.52819 | 895 ft | 9 kts | 162° |
| 2026-05-01 14:36 | 47.59473 | 7.52879 | 871 ft | 16 kts | 154° |
| 2026-05-01 14:36 | 47.59379 | 7.52944 | 871 ft | 14 kts | 155° |
| 2026-05-01 14:36 | 47.59269 | 7.53021 | 871 ft | 21 kts | 155° |
| 2026-05-01 14:37 | 47.59182 | 7.53120 | 868 ft | 14 kts | 101° |
| 2026-05-01 14:37 | 47.59156 | 7.53244 | 868 ft | 13 kts | 137° |
| 2026-05-01 14:37 | 47.59155 | 7.53354 | 868 ft | 10 kts | 76° |
| 2026-05-01 14:37 | 47.59173 | 7.53470 | 868 ft | 17 kts | 77° |
| 2026-05-01 14:38 | 47.59201 | 7.53649 | 870 ft | 19 kts | 77° |
| 2026-05-01 14:38 | 47.59232 | 7.53846 | 869 ft | 20 kts | 77° |
| 2026-05-01 14:38 | 47.59243 | 7.53918 | 869 ft | 1 kts | 80° |
| 2026-05-01 14:38 | 47.59225 | 7.54001 | 867 ft | 17 kts | 122° |
| 2026-05-01 14:39 | 47.59158 | 7.54005 | 865 ft | 12 kts | 251° |
| 2026-05-01 14:39 | 47.59112 | 7.53711 | 869 ft | 65 kts | 257° |
| 2026-05-01 14:39 | 47.58945 | 7.52658 | 873 ft | 140 kts | 257° |
| 2026-05-01 14:39 | 47.58718 | 7.51092 | 1307 ft | 157 kts | 259° |
| 2026-05-01 14:40 | 47.58493 | 7.49542 | 2149 ft | 155 kts | 257° |
| 2026-05-01 14:40 | 47.58239 | 7.47963 | 2910 ft | 160 kts | 256° |
| 2026-05-01 14:40 | 47.58074 | 7.46309 | 3634 ft | 167 kts | 276° |
| 2026-05-01 14:40 | 47.58540 | 7.44716 | 3970 ft | 181 kts | 316° |
| 2026-05-01 14:41 | 47.59739 | 7.43981 | 4159 ft | 201 kts | 1° |
| 2026-05-01 14:41 | 47.61065 | 7.44778 | 4314 ft | 225 kts | 45° |
| 2026-05-01 14:41 | 47.62003 | 7.46780 | 4628 ft | 249 kts | 63° |
| 2026-05-01 14:41 | 47.62731 | 7.49236 | 5085 ft | 268 kts | 69° |
| 2026-05-01 14:42 | 47.63397 | 7.51875 | 5814 ft | 275 kts | 70° |
| 2026-05-01 14:42 | 47.64054 | 7.54535 | 6649 ft | 279 kts | 70° |
| 2026-05-01 14:42 | 47.64747 | 7.57245 | 7459 ft | 280 kts | 70° |
| 2026-05-01 14:42 | 47.65464 | 7.59937 | 8359 ft | 281 kts | 70° |
| 2026-05-01 14:43 | 47.66208 | 7.62647 | 9175 ft | 284 kts | 69° |
| 2026-05-01 14:43 | 47.66965 | 7.65351 | 9963 ft | 288 kts | 69° |
| 2026-05-01 14:43 | 47.67761 | 7.68166 | 10422 ft | 305 kts | 69° |
| 2026-05-01 14:43 | 47.68615 | 7.71187 | 10606 ft | 329 kts | 69° |
| 2026-05-01 14:44 | 47.69525 | 7.74401 | 11049 ft | 341 kts | 69° |
| 2026-05-01 14:44 | 47.70995 | 7.79861 | 12189 ft | 347 kts | 71° |
| 2026-05-01 14:44 | 47.71848 | 7.83248 | 12907 ft | 351 kts | 71° |
| 2026-05-01 14:45 | 47.72969 | 7.87803 | 13839 ft | 355 kts | 71° |
| 2026-05-01 14:45 | 47.74689 | 7.94782 | 15098 ft | 362 kts | 71° |
| 2026-05-01 14:45 | 47.75556 | 7.98278 | 15703 ft | 365 kts | 71° |
| 2026-05-01 14:46 | 47.76438 | 8.01846 | 16324 ft | 368 kts | 72° |
| 2026-05-01 14:46 | 47.77047 | 8.09378 | 17489 ft | 372 kts | 96° |
| 2026-05-01 14:46 | 47.76776 | 8.11914 | 17872 ft | 374 kts | 104° |
| 2026-05-01 14:47 | 47.75673 | 8.16800 | 18626 ft | 378 kts | 110° |
| 2026-05-01 14:47 | 47.75052 | 8.19293 | 18976 ft | 380 kts | 110° |
| 2026-05-01 14:47 | 47.74137 | 8.22951 | 19482 ft | 383 kts | 110° |
| 2026-05-01 14:48 | 47.72259 | 8.30444 | 20524 ft | 389 kts | 110° |
| 2026-05-01 14:48 | 47.71311 | 8.34181 | 21023 ft | 392 kts | 113° |
| 2026-05-01 14:48 | 47.68072 | 8.40746 | 22021 ft | 400 kts | 139° |
| 2026-05-01 14:49 | 47.63080 | 8.44436 | 22907 ft | 412 kts | 167° |
| 2026-05-01 14:49 | 47.57320 | 8.45420 | 23836 ft | 419 kts | 173° |
| 2026-05-01 14:50 | 47.52494 | 8.46126 | 24442 ft | 423 kts | 173° |
| 2026-05-01 14:50 | 47.45609 | 8.47146 | 25290 ft | 429 kts | 173° |
| 2026-05-01 14:51 | 47.42625 | 8.47585 | 25639 ft | 431 kts | 173° |
| 2026-05-01 14:51 | 47.36641 | 8.48460 | 26336 ft | 435 kts | 174° |
| 2026-05-01 14:52 | 47.30566 | 8.49346 | 26980 ft | 439 kts | 174° |
| 2026-05-01 14:52 | 47.27507 | 8.49789 | 27306 ft | 441 kts | 174° |
| 2026-05-01 14:52 | 47.21390 | 8.50672 | 27950 ft | 445 kts | 174° |
| 2026-05-01 14:53 | 47.18288 | 8.51122 | 28260 ft | 447 kts | 174° |
| 2026-05-01 14:53 | 47.15207 | 8.51570 | 28548 ft | 449 kts | 174° |
| 2026-05-01 14:53 | 47.12081 | 8.52055 | 28856 ft | 451 kts | 171° |
| 2026-05-01 14:53 | 47.09010 | 8.53142 | 29131 ft | 452 kts | 160° |
| 2026-05-01 14:54 | 47.06171 | 8.55038 | 29390 ft | 453 kts | 148° |
| 2026-05-01 14:54 | 47.03614 | 8.57694 | 29592 ft | 454 kts | 137° |
| 2026-05-01 14:54 | 47.01428 | 8.61039 | 29854 ft | 455 kts | 126° |
| 2026-05-01 14:54 | 46.99702 | 8.64923 | 30100 ft | 455 kts | 116° |
| 2026-05-01 14:55 | 46.98209 | 8.69068 | 30336 ft | 457 kts | 116° |
| 2026-05-01 14:55 | 46.96729 | 8.73150 | 30566 ft | 458 kts | 116° |
| 2026-05-01 14:55 | 46.95220 | 8.77292 | 30766 ft | 460 kts | 116° |
| 2026-05-01 14:55 | 46.93720 | 8.81395 | 30961 ft | 462 kts | 116° |
| 2026-05-01 14:56 | 46.92203 | 8.85540 | 31221 ft | 461 kts | 117° |
| 2026-05-01 14:56 | 46.90679 | 8.89700 | 31477 ft | 461 kts | 117° |
| 2026-05-01 14:56 | 46.89164 | 8.93831 | 31753 ft | 460 kts | 117° |
| 2026-05-01 14:56 | 46.87663 | 8.97922 | 31973 ft | 460 kts | 116° |
| 2026-05-01 14:57 | 46.86154 | 9.02040 | 32261 ft | 459 kts | 116° |
| 2026-05-01 14:57 | 46.83124 | 9.10285 | 32833 ft | 458 kts | 116° |
| 2026-05-01 14:57 | 46.81632 | 9.14332 | 33073 ft | 457 kts | 117° |
| 2026-05-01 14:58 | 46.80110 | 9.18447 | 33301 ft | 458 kts | 117° |
| 2026-05-01 14:58 | 46.78589 | 9.22546 | 33532 ft | 458 kts | 117° |
| 2026-05-01 14:58 | 46.77092 | 9.26586 | 33798 ft | 457 kts | 117° |
| 2026-05-01 14:58 | 46.75573 | 9.30680 | 34084 ft | 457 kts | 117° |
| 2026-05-01 14:59 | 46.74050 | 9.34781 | 34358 ft | 456 kts | 117° |
| 2026-05-01 14:59 | 46.72556 | 9.38801 | 34611 ft | 456 kts | 116° |
| 2026-05-01 14:59 | 46.71039 | 9.42871 | 34839 ft | 455 kts | 116° |
| 2026-05-01 14:59 | 46.69520 | 9.46943 | 35074 ft | 455 kts | 116° |
| 2026-05-01 15:00 | 46.66491 | 9.55038 | 35503 ft | 455 kts | 116° |
| 2026-05-01 15:00 | 46.64994 | 9.59031 | 35711 ft | 455 kts | 116° |
| 2026-05-01 15:00 | 46.63468 | 9.63088 | 35915 ft | 454 kts | 117° |
| 2026-05-01 15:01 | 46.61941 | 9.67137 | 36112 ft | 454 kts | 117° |
| 2026-05-01 15:01 | 46.60418 | 9.71167 | 36287 ft | 454 kts | 117° |
| 2026-05-01 15:01 | 46.58910 | 9.75160 | 36490 ft | 454 kts | 116° |
| 2026-05-01 15:01 | 46.57388 | 9.79193 | 36686 ft | 453 kts | 116° |
| 2026-05-01 15:02 | 46.55864 | 9.83224 | 36879 ft | 453 kts | 116° |
| 2026-05-01 15:02 | 46.54854 | 9.85889 | 36991 ft | 453 kts | 116° |
| 2026-05-01 15:02 | 46.52831 | 9.91219 | 37172 ft | 453 kts | 116° |
| 2026-05-01 15:02 | 46.51306 | 9.95229 | 37308 ft | 454 kts | 116° |
| 2026-05-01 15:03 | 46.49696 | 9.99194 | 37330 ft | 456 kts | 123° |
| 2026-05-01 15:03 | 46.45360 | 10.05853 | 37324 ft | 460 kts | 142° |
| 2026-05-01 15:04 | 46.39813 | 10.10617 | 37321 ft | 463 kts | 150° |
| 2026-05-01 15:04 | 46.34151 | 10.15054 | 37329 ft | 464 kts | 150° |
| 2026-05-01 15:05 | 46.28488 | 10.19486 | 37326 ft | 464 kts | 150° |
| 2026-05-01 15:05 | 46.22788 | 10.23927 | 37334 ft | 464 kts | 150° |
| 2026-05-01 15:06 | 46.17118 | 10.28334 | 37346 ft | 464 kts | 150° |
| 2026-05-01 15:06 | 46.11411 | 10.32770 | 37351 ft | 464 kts | 150° |
| 2026-05-01 15:07 | 46.05714 | 10.37184 | 37376 ft | 465 kts | 150° |
| 2026-05-01 15:07 | 46.00033 | 10.41580 | 37369 ft | 465 kts | 150° |
| 2026-05-01 15:08 | 45.94345 | 10.45953 | 37364 ft | 465 kts | 150° |
| 2026-05-01 15:08 | 45.88624 | 10.50346 | 37374 ft | 465 kts | 150° |
| 2026-05-01 15:09 | 45.82900 | 10.54746 | 37358 ft | 466 kts | 150° |
| 2026-05-01 15:09 | 45.77195 | 10.59117 | 37363 ft | 467 kts | 150° |
| 2026-05-01 15:10 | 45.71434 | 10.63513 | 37390 ft | 467 kts | 150° |
| 2026-05-01 15:10 | 45.62835 | 10.70051 | 37355 ft | 468 kts | 150° |
| 2026-05-01 15:11 | 45.54216 | 10.76589 | 37349 ft | 468 kts | 150° |
| 2026-05-01 15:12 | 45.48459 | 10.80934 | 37333 ft | 468 kts | 150° |
| 2026-05-01 15:12 | 45.39827 | 10.87440 | 37329 ft | 469 kts | 150° |
| 2026-05-01 15:14 | 45.25354 | 10.98318 | 37368 ft | 470 kts | 150° |
| 2026-05-01 15:14 | 45.16692 | 11.04790 | 37362 ft | 471 kts | 150° |
| 2026-05-01 15:15 | 45.05064 | 11.13418 | 37358 ft | 471 kts | 150° |
| 2026-05-01 15:16 | 44.93434 | 11.22027 | 37352 ft | 472 kts | 150° |
| 2026-05-01 15:18 | 44.78884 | 11.32758 | 37348 ft | 473 kts | 150° |
| 2026-05-01 15:19 | 44.67178 | 11.41336 | 37363 ft | 474 kts | 150° |
| 2026-05-01 15:19 | 44.58407 | 11.47735 | 37339 ft | 474 kts | 150° |
| 2026-05-01 15:20 | 44.49602 | 11.54141 | 37335 ft | 475 kts | 150° |
| 2026-05-01 15:21 | 44.43752 | 11.58383 | 37339 ft | 475 kts | 150° |
| 2026-05-01 15:21 | 44.37852 | 11.62658 | 37352 ft | 476 kts | 150° |
| 2026-05-01 15:22 | 44.29026 | 11.69038 | 37371 ft | 477 kts | 150° |
| 2026-05-01 15:22 | 44.23141 | 11.73264 | 37368 ft | 477 kts | 150° |
| 2026-05-01 15:23 | 44.17287 | 11.77695 | 37367 ft | 476 kts | 147° |
| 2026-05-01 15:23 | 44.11580 | 11.82329 | 37365 ft | 476 kts | 147° |
| 2026-05-01 15:24 | 44.05865 | 11.86958 | 37364 ft | 477 kts | 147° |
| 2026-05-01 15:24 | 44.00078 | 11.91541 | 37366 ft | 477 kts | 147° |
| 2026-05-01 15:25 | 43.94307 | 11.96058 | 37365 ft | 478 kts | 147° |
| 2026-05-01 15:25 | 43.88531 | 12.00582 | 37349 ft | 478 kts | 147° |
| 2026-05-01 15:26 | 43.82713 | 12.05145 | 37379 ft | 479 kts | 147° |
| 2026-05-01 15:26 | 43.76937 | 12.09669 | 37369 ft | 479 kts | 147° |
| 2026-05-01 15:27 | 43.71108 | 12.14217 | 37343 ft | 480 kts | 147° |
| 2026-05-01 15:28 | 43.62380 | 12.21016 | 37335 ft | 481 kts | 147° |
| 2026-05-01 15:28 | 43.57533 | 12.24833 | 37339 ft | 481 kts | 146° |
| 2026-05-01 15:29 | 43.48867 | 12.31813 | 37320 ft | 482 kts | 146° |
| 2026-05-01 15:30 | 43.37251 | 12.41069 | 37322 ft | 483 kts | 146° |
| 2026-05-01 15:31 | 43.19803 | 12.54891 | 37287 ft | 483 kts | 146° |
| 2026-05-01 15:32 | 43.08176 | 12.64039 | 37276 ft | 483 kts | 146° |
| 2026-05-01 15:34 | 42.90640 | 12.77769 | 37317 ft | 485 kts | 146° |